Terminal Aerodrome Forecast
Issued by NWS

Home | Current Version | Previous Version | Text Only | Print | Product List | Glossary On
Versions: 1 2 3 4 5 6 7 8 9 10 11 12 13 14 15 16 17 18 19 20 21 22
733
FTUS41 KBTV 271737
TAFMPV
TAF
KMPV 271737Z 2718/2818 28013G23KT P6SM BKN060
     FM272200 24006KT P6SM BKN060
     FM280000 24006KT P6SM FEW060
     FM280800 00000KT P6SM SCT150
     FM281700 16009KT P6SM SCT045=

USA.gov is the U.S. government's official web portal to all federal, state and local government web resources and services.